Time;durP1;ratioP1;P1;durP2;ratioP2;P2;SDS_P1;SDS_P2;PMS_P1;PMS_P2;Temp;Humidity;BMP_temperature;BMP_pressure;BME280_temperature;BME280_humidity;BME280_pressure;Samples;Min_cycle;Max_cycle;Signal;HPM_P1;HPM_P2
2021/03/11 00:00:18;;;;;;;9.80;8.77;;;9.40;53.10;;;;;;4988939;28;20195;-93
2021/03/11 00:02:44;;;;;;;11.47;9.07;;;9.30;54.40;;;;;;4989866;28;20186;-92
2021/03/11 00:05:13;;;;;;;13.53;9.63;;;9.40;54.00;;;;;;5008269;28;20195;-92
2021/03/11 00:07:39;;;;;;;9.63;8.63;;;9.40;55.50;;;;;;4991153;28;20184;-92
2021/03/11 00:10:06;;;;;;;11.20;9.23;;;9.30;55.80;;;;;;4990443;28;20195;-92
2021/03/11 00:12:32;;;;;;;11.27;7.67;;;9.30;55.40;;;;;;4989453;28;20191;-91
2021/03/11 00:14:58;;;;;;;8.63;7.60;;;9.30;55.30;;;;;;4989955;28;20246;-91
2021/03/11 00:17:24;;;;;;;9.17;7.70;;;9.20;56.90;;;;;;4989534;28;20218;-94
2021/03/11 00:19:50;;;;;;;11.13;8.30;;;9.10;57.00;;;;;;4988915;28;20179;-91
2021/03/11 00:22:16;;;;;;;11.93;7.57;;;9.20;56.50;;;;;;4993449;28;20279;-92
2021/03/11 00:24:41;;;;;;;9.47;8.20;;;9.10;55.70;;;;;;4990603;28;20279;-91
2021/03/11 00:27:07;;;;;;;8.93;7.67;;;9.20;56.30;;;;;;4989056;28;20194;-92
2021/03/11 00:29:33;;;;;;;7.97;7.17;;;9.20;56.80;;;;;;5003683;28;20183;-91
2021/03/11 00:31:58;;;;;;;9.03;7.67;;;9.10;57.50;;;;;;5003847;28;20626;-90
2021/03/11 00:34:25;;;;;;;9.10;7.63;;;9.10;58.20;;;;;;4986933;28;20262;-92
2021/03/11 00:36:51;;;;;;;8.23;6.67;;;9.20;56.60;;;;;;5004252;28;20274;-92
2021/03/11 00:39:18;;;;;;;9.23;6.90;;;9.10;57.50;;;;;;5004290;28;20179;-92
2021/03/11 00:41:44;;;;;;;11.00;6.50;;;9.00;57.40;;;;;;4988400;28;20289;-92
2021/03/11 00:44:10;;;;;;;7.03;6.03;;;9.10;57.90;;;;;;4988018;28;20213;-92
2021/03/11 00:46:36;;;;;;;7.03;6.27;;;9.20;56.20;;;;;;4993684;28;20195;-92
2021/03/11 00:49:01;;;;;;;8.03;5.93;;;9.20;56.50;;;;;;4987661;28;20187;-93
2021/03/11 00:51:27;;;;;;;8.03;6.27;;;9.20;56.20;;;;;;4987156;28;20690;-92
2021/03/11 00:53:53;;;;;;;7.87;6.00;;;9.30;56.30;;;;;;4989178;28;20187;-92
2021/03/11 00:56:19;;;;;;;8.23;6.33;;;9.30;55.50;;;;;;4987597;28;20214;-93
2021/03/11 00:58:45;;;;;;;6.33;4.87;;;9.40;55.40;;;;;;4988306;28;20206;-92
2021/03/11 01:01:10;;;;;;;7.93;5.87;;;9.40;55.10;;;;;;4986875;28;20203;-91
2021/03/11 01:03:36;;;;;;;7.57;5.13;;;9.40;54.80;;;;;;4986801;28;20689;-93
2021/03/11 01:06:02;;;;;;;8.57;5.63;;;9.40;55.00;;;;;;4987104;28;20189;-93
2021/03/11 01:08:28;;;;;;;7.40;5.20;;;9.40;55.50;;;;;;4986958;28;20277;-92
2021/03/11 01:10:54;;;;;;;7.47;5.37;;;9.50;54.40;;;;;;4986962;28;20211;-92
2021/03/11 01:13:19;;;;;;;6.80;5.47;;;9.40;54.70;;;;;;4986628;28;20194;-91
2021/03/11 01:15:45;;;;;;;5.73;5.13;;;9.50;54.40;;;;;;4986688;28;20285;-92
2021/03/11 01:18:12;;;;;;;6.27;5.03;;;9.40;54.50;;;;;;4987284;28;20242;-90
2021/03/11 01:20:39;;;;;;;8.00;5.70;;;9.40;55.40;;;;;;4986698;28;20203;-91
2021/03/11 01:23:05;;;;;;;8.40;5.30;;;9.30;54.40;;;;;;4987257;28;20198;-91
2021/03/11 01:25:31;;;;;;;7.13;5.07;;;9.50;54.00;;;;;;5003879;28;20183;-92
2021/03/11 01:27:57;;;;;;;6.40;5.10;;;9.50;54.60;;;;;;4990097;28;20701;-91
2021/03/11 01:30:23;;;;;;;5.97;4.97;;;9.40;54.90;;;;;;5003113;28;20261;-91
2021/03/11 01:32:49;;;;;;;6.67;4.50;;;9.30;55.40;;;;;;5002748;28;20780;-92
2021/03/11 01:35:15;;;;;;;6.47;4.93;;;9.30;55.20;;;;;;5002970;28;20194;-91
2021/03/11 01:37:40;;;;;;;5.10;4.03;;;9.40;54.70;;;;;;5003056;28;20317;-91
2021/03/11 01:40:08;;;;;;;4.50;3.87;;;9.40;54.80;;;;;;4987743;28;20183;-91
2021/03/11 01:42:35;;;;;;;5.33;4.27;;;9.40;55.10;;;;;;4986644;28;20190;-91
2021/03/11 01:45:01;;;;;;;4.87;3.83;;;9.40;55.00;;;;;;5003192;28;20183;-91
2021/03/11 01:47:26;;;;;;;4.43;3.60;;;9.30;55.20;;;;;;4987227;28;20244;-92
2021/03/11 01:49:52;;;;;;;4.90;3.87;;;9.40;55.20;;;;;;4987915;28;20288;-92
2021/03/11 01:52:18;;;;;;;4.27;3.73;;;9.40;55.20;;;;;;4987568;28;20194;-92
2021/03/11 01:54:45;;;;;;;6.67;4.23;;;9.40;55.40;;;;;;4987537;28;20206;-92
2021/03/11 01:57:12;;;;;;;4.67;3.80;;;9.40;55.20;;;;;;4987267;28;20262;-92
2021/03/11 01:59:37;;;;;;;6.50;4.27;;;9.40;55.70;;;;;;4986135;28;20675;-92
2021/03/11 02:02:03;;;;;;;4.97;3.90;;;9.50;55.10;;;;;;4970271;28;20238;-92
2021/03/11 02:04:29;;;;;;;5.27;3.70;;;9.40;55.30;;;;;;4986899;28;20282;-92
2021/03/11 02:06:56;;;;;;;4.90;3.97;;;9.40;55.10;;;;;;4987203;28;20210;-92
2021/03/11 02:09:22;;;;;;;4.23;3.67;;;9.50;55.60;;;;;;4987384;28;20206;-91
2021/03/11 02:12:07;;;;;;;4.40;3.90;;;9.40;55.20;;;;;;4992537;28;20203;-91
2021/03/11 02:14:35;;;;;;;6.10;4.47;;;9.50;55.10;;;;;;4991115;28;20229;-93
2021/03/11 02:17:03;;;;;;;5.73;4.47;;;9.40;55.50;;;;;;4987470;28;20215;-91
2021/03/11 02:19:38;;;;;;;8.57;5.73;;;9.50;55.30;;;;;;4986928;28;20179;-92
2021/03/11 02:22:13;;;;;;;5.30;4.70;;;9.40;54.90;;;;;;4986233;28;20231;-92
2021/03/11 02:24:51;;;;;;;6.47;5.43;;;9.40;55.30;;;;;;4988737;28;20174;-92
2021/03/11 02:27:23;;;;;;;6.93;5.57;;;9.40;56.00;;;;;;4991238;28;20171;-91
2021/03/11 02:29:50;;;;;;;7.90;5.97;;;9.30;58.30;;;;;;4991397;28;20237;-92
2021/03/11 02:32:18;;;;;;;8.23;5.93;;;9.30;59.10;;;;;;5009112;28;20215;-91
2021/03/11 02:34:50;;;;;;;8.07;6.37;;;9.30;57.50;;;;;;5006990;28;20194;-92
2021/03/11 02:37:25;;;;;;;8.57;6.13;;;9.30;57.60;;;;;;4990981;28;20210;-92
2021/03/11 02:39:57;;;;;;;7.83;6.40;;;9.40;57.10;;;;;;5006039;28;20175;-92
2021/03/11 02:42:25;;;;;;;9.03;7.13;;;9.30;58.30;;;;;;4989602;28;20207;-92
2021/03/11 02:44:52;;;;;;;9.00;7.37;;;9.30;57.80;;;;;;4973595;28;20329;-92
2021/03/11 02:47:18;;;;;;;9.57;7.67;;;9.30;57.40;;;;;;4989890;28;20504;-92
2021/03/11 02:49:47;;;;;;;8.37;7.57;;;9.30;57.90;;;;;;4974029;28;20191;-93
2021/03/11 02:52:14;;;;;;;11.70;8.87;;;9.30;57.40;;;;;;4969921;29;20211;-92
2021/03/11 02:54:41;;;;;;;11.47;8.30;;;9.30;55.80;;;;;;4971470;29;20191;-92
2021/03/11 02:57:10;;;;;;;10.43;8.33;;;9.40;55.60;;;;;;4970688;29;20215;-93
2021/03/11 02:59:36;;;;;;;10.30;8.53;;;9.40;55.90;;;;;;4971239;28;20191;-92
2021/03/11 03:02:04;;;;;;;9.80;8.80;;;9.40;55.90;;;;;;4970682;29;20216;-92
2021/03/11 03:04:30;;;;;;;13.37;8.77;;;9.50;55.80;;;;;;4971941;29;20222;-92
2021/03/11 03:06:58;;;;;;;12.80;9.53;;;9.50;55.70;;;;;;4971181;29;20714;-92
2021/03/11 03:09:25;;;;;;;10.93;8.33;;;9.50;55.70;;;;;;4971205;28;20196;-91
2021/03/11 03:11:52;;;;;;;11.70;9.30;;;9.50;56.30;;;;;;4971110;29;20227;-92
2021/03/11 03:14:19;;;;;;;10.77;9.67;;;9.50;55.30;;;;;;4972980;29;20647;-92
2021/03/11 03:16:46;;;;;;;10.23;8.90;;;9.60;55.10;;;;;;4973048;29;20188;-92
2021/03/11 03:19:13;;;;;;;12.10;9.20;;;9.60;55.00;;;;;;4972951;28;20184;-92
2021/03/11 03:21:43;;;;;;;10.27;8.27;;;9.60;54.70;;;;;;4972099;29;20695;-92
2021/03/11 03:24:14;;;;;;;12.83;9.77;;;9.60;55.30;;;;;;4973991;29;20234;-92
2021/03/11 03:26:40;;;;;;;10.70;9.60;;;9.60;55.20;;;;;;4988898;28;20191;-92
2021/03/11 03:29:06;;;;;;;12.63;9.73;;;9.80;54.70;;;;;;4972841;28;20219;-91
2021/03/11 03:31:32;;;;;;;12.27;9.17;;;9.70;55.50;;;;;;4956978;29;20219;-92
2021/03/11 03:33:58;;;;;;;11.53;8.97;;;9.70;55.10;;;;;;4957362;28;20183;-89
2021/03/11 03:36:24;;;;;;;13.70;9.97;;;9.80;54.90;;;;;;4990841;28;20198;-91
2021/03/11 03:38:49;;;;;;;11.60;9.10;;;9.80;55.20;;;;;;4993742;28;20757;-91
2021/03/11 03:41:16;;;;;;;11.17;9.97;;;9.70;55.40;;;;;;4992122;28;20199;-92
2021/03/11 03:43:45;;;;;;;12.57;9.27;;;9.70;56.00;;;;;;4991211;28;20214;-93
2021/03/11 03:46:15;;;;;;;10.20;9.10;;;9.60;56.30;;;;;;4991867;28;20184;-91
2021/03/11 03:48:44;;;;;;;13.00;10.23;;;9.60;56.50;;;;;;5003542;28;20206;-92
2021/03/11 03:51:11;;;;;;;10.50;8.10;;;9.60;57.00;;;;;;4979984;28;20237;-93
2021/03/11 03:53:53;;;;;;;11.80;8.60;;;9.70;56.60;;;;;;4991914;28;20195;-92
2021/03/11 03:56:35;;;;;;;11.13;8.63;;;9.70;56.70;;;;;;4991505;28;20182;-92
2021/03/11 03:59:09;;;;;;;10.83;8.10;;;9.70;57.30;;;;;;5007494;28;20187;-92
2021/03/11 04:01:37;;;;;;;12.40;8.13;;;9.70;57.20;;;;;;5007915;28;20223;-92
2021/03/11 04:04:06;;;;;;;19.33;8.83;;;9.60;57.80;;;;;;4993411;28;20226;-92
2021/03/11 04:06:32;;;;;;;9.80;8.03;;;9.60;58.60;;;;;;5007976;28;20187;-92
2021/03/11 04:09:01;;;;;;;9.73;7.43;;;9.70;58.10;;;;;;4991819;28;20182;-91
2021/03/11 04:11:27;;;;;;;10.40;8.73;;;9.80;58.20;;;;;;4990338;28;20199;-92
2021/03/11 04:13:54;;;;;;;9.73;6.97;;;9.70;58.20;;;;;;4991348;28;20242;-91
2021/03/11 04:16:21;;;;;;;8.07;7.27;;;9.80;58.00;;;;;;4975381;28;20198;-92
2021/03/11 04:18:50;;;;;;;9.10;8.03;;;9.80;58.30;;;;;;4981314;28;20207;-91
2021/03/11 04:21:16;;;;;;;9.37;7.57;;;9.70;58.40;;;;;;4970835;28;20207;-92
2021/03/11 04:23:43;;;;;;;11.10;7.83;;;9.90;58.20;;;;;;4970853;28;20188;-91
2021/03/11 04:26:09;;;;;;;9.50;7.30;;;9.80;58.20;;;;;;4974417;29;20168;-92
2021/03/11 04:28:36;;;;;;;11.17;7.33;;;9.80;57.80;;;;;;4962565;28;20187;-90
2021/03/11 04:31:02;;;;;;;8.80;7.33;;;9.90;57.60;;;;;;4979280;28;20267;-90
2021/03/11 04:33:29;;;;;;;8.33;7.53;;;9.90;57.60;;;;;;4978119;28;20211;-91
2021/03/11 04:35:55;;;;;;;8.67;6.83;;;10.00;57.30;;;;;;4983299;28;20250;-92
2021/03/11 04:38:21;;;;;;;8.13;6.83;;;10.00;57.30;;;;;;4992099;28;20266;-93
2021/03/11 04:40:47;;;;;;;9.20;7.37;;;9.90;57.90;;;;;;4992248;28;20473;-90
2021/03/11 04:43:14;;;;;;;9.10;7.20;;;9.90;57.40;;;;;;4999562;28;20173;-90
2021/03/11 04:45:43;;;;;;;9.27;7.57;;;10.00;57.30;;;;;;4998435;28;20197;-90
2021/03/11 04:48:11;;;;;;;10.57;6.13;;;10.00;57.40;;;;;;4998279;28;20187;-92
2021/03/11 04:50:38;;;;;;;10.60;7.13;;;10.10;57.20;;;;;;4997149;28;20203;-91
2021/03/11 04:53:05;;;;;;;9.30;6.90;;;10.00;57.20;;;;;;4997173;28;20179;-91
2021/03/11 04:55:32;;;;;;;8.93;7.00;;;10.00;57.30;;;;;;4994770;28;20191;-92
2021/03/11 04:57:57;;;;;;;9.63;6.37;;;10.00;57.40;;;;;;4997205;28;20229;-91
2021/03/11 05:00:25;;;;;;;9.30;7.27;;;10.00;57.70;;;;;;4997756;28;20584;-91
2021/03/11 05:02:51;;;;;;;7.83;6.30;;;10.10;57.50;;;;;;4990726;28;20294;-92
2021/03/11 05:05:36;;;;;;;7.07;6.37;;;10.00;57.40;;;;;;4989146;28;20192;-90
2021/03/11 05:08:03;;;;;;;9.37;6.93;;;10.00;57.90;;;;;;4990434;28;20171;-91
2021/03/11 05:10:29;;;;;;;10.23;6.30;;;10.00;58.20;;;;;;4989554;28;20203;-92
2021/03/11 05:12:55;;;;;;;6.93;6.23;;;10.00;58.60;;;;;;4990676;28;20515;-92
2021/03/11 05:15:21;;;;;;;8.07;6.03;;;10.00;59.20;;;;;;4990094;28;20179;-92
2021/03/11 05:17:46;;;;;;;7.63;6.10;;;9.90;60.20;;;;;;4988799;28;20245;-91
2021/03/11 05:20:13;;;;;;;7.23;5.70;;;10.10;59.60;;;;;;4989788;28;20661;-92
2021/03/11 05:22:38;;;;;;;7.00;5.53;;;10.00;59.90;;;;;;4973297;28;20186;-92
2021/03/11 05:25:09;;;;;;;8.53;5.93;;;10.00;60.80;;;;;;4971515;28;20179;-92
2021/03/11 05:27:35;;;;;;;9.30;5.47;;;10.10;60.70;;;;;;4972729;28;20179;-92
2021/03/11 05:30:03;;;;;;;5.70;5.10;;;10.10;60.70;;;;;;4988584;28;20186;-91
2021/03/11 05:32:28;;;;;;;7.83;5.57;;;10.10;61.20;;;;;;5008605;28;20728;-91
2021/03/11 05:34:54;;;;;;;8.17;4.83;;;10.10;62.00;;;;;;4977251;28;20195;-91
2021/03/11 05:37:20;;;;;;;4.97;4.30;;;9.90;63.40;;;;;;4994646;28;20318;-90
2021/03/11 05:39:45;;;;;;;7.93;4.57;;;10.00;63.30;;;;;;4974838;28;20258;-91
2021/03/11 05:42:12;;;;;;;7.80;5.00;;;10.00;63.70;;;;;;4989919;28;20202;-92
2021/03/11 05:44:38;;;;;;;7.60;4.53;;;10.00;63.70;;;;;;4991192;28;20184;-91
2021/03/11 05:47:07;;;;;;;5.87;4.33;;;10.00;63.70;;;;;;4995367;28;20175;-91
2021/03/11 05:49:34;;;;;;;6.80;4.00;;;10.10;63.30;;;;;;4995908;28;20206;-91
2021/03/11 05:52:01;;;;;;;7.00;4.33;;;10.10;63.60;;;;;;4991325;28;20207;-92
2021/03/11 05:54:28;;;;;;;6.33;4.10;;;10.10;63.40;;;;;;4991175;28;20183;-91
2021/03/11 05:56:55;;;;;;;4.60;4.03;;;10.10;63.60;;;;;;4990787;28;20223;-91
2021/03/11 05:59:21;;;;;;;6.83;3.57;;;10.10;63.70;;;;;;5008368;28;20650;-90
2021/03/11 06:01:48;;;;;;;3.60;3.30;;;10.20;63.30;;;;;;4990109;28;20226;-90
2021/03/11 06:04:15;;;;;;;5.87;3.97;;;10.20;64.30;;;;;;4994676;28;20179;-89
2021/03/11 06:06:42;;;;;;;4.50;4.00;;;10.20;63.60;;;;;;4991316;28;20181;-91
2021/03/11 06:09:09;;;;;;;4.93;3.83;;;10.20;64.00;;;;;;4990445;28;20194;-90
2021/03/11 06:11:35;;;;;;;3.87;3.47;;;10.30;63.40;;;;;;4991825;28;20202;-92
2021/03/11 06:14:02;;;;;;;10.23;3.87;;;10.30;63.50;;;;;;4992469;28;20655;-91
2021/03/11 06:16:32;;;;;;;3.87;3.03;;;10.30;63.80;;;;;;4990937;28;20222;-91
2021/03/11 06:18:58;;;;;;;5.37;4.20;;;10.30;63.90;;;;;;4990252;28;20222;-91
2021/03/11 06:21:24;;;;;;;4.30;3.53;;;10.40;63.80;;;;;;4981573;28;20292;-92
2021/03/11 06:23:50;;;;;;;4.90;3.23;;;10.30;64.20;;;;;;4998832;28;20182;-90
2021/03/11 06:26:16;;;;;;;6.83;2.97;;;10.40;64.00;;;;;;4991796;28;20198;-91
2021/03/11 06:28:45;;;;;;;7.10;3.07;;;10.40;64.70;;;;;;4989880;28;20195;-90
2021/03/11 06:31:23;;;;;;;6.07;3.80;;;10.40;64.00;;;;;;4990179;28;20214;-91
2021/03/11 06:33:50;;;;;;;4.50;3.57;;;10.50;64.00;;;;;;4985212;28;20183;-91
2021/03/11 06:36:17;;;;;;;7.80;3.57;;;10.50;64.20;;;;;;4988630;28;20190;-92
2021/03/11 06:38:43;;;;;;;4.67;3.17;;;10.50;64.60;;;;;;4990248;28;20237;-92
2021/03/11 06:41:09;;;;;;;4.57;3.17;;;10.50;64.30;;;;;;4987250;28;20202;-89
2021/03/11 06:43:54;;;;;;;5.07;3.57;;;10.50;64.40;;;;;;5008565;28;20211;-90
2021/03/11 06:46:25;;;;;;;6.83;3.60;;;10.50;64.40;;;;;;4984482;28;20278;-90
2021/03/11 06:49:08;;;;;;;6.13;3.90;;;10.50;64.20;;;;;;5005800;28;20674;-91
2021/03/11 06:51:34;;;;;;;4.17;3.23;;;10.60;64.30;;;;;;4984930;28;20233;-90
2021/03/11 06:54:00;;;;;;;8.63;3.50;;;10.60;64.70;;;;;;5006587;28;20211;-90
2021/03/11 06:56:27;;;;;;;4.50;3.20;;;10.60;64.30;;;;;;4983624;28;20728;-91
2021/03/11 06:59:04;;;;;;;5.13;3.30;;;10.60;63.90;;;;;;4989934;28;20207;-92
2021/03/11 07:01:32;;;;;;;3.80;2.93;;;10.60;64.40;;;;;;4985120;28;20242;-89
2021/03/11 07:04:01;;;;;;;4.53;3.40;;;10.70;64.30;;;;;;4979826;28;20172;-90
2021/03/11 07:06:35;;;;;;;3.97;2.80;;;10.70;64.20;;;;;;4982839;28;20206;-91
2021/03/11 07:09:02;;;;;;;7.63;2.97;;;10.80;63.60;;;;;;4991923;28;20191;-92
2021/03/11 07:11:29;;;;;;;3.97;3.30;;;10.70;63.70;;;;;;4989468;28;20495;-91
2021/03/11 07:13:57;;;;;;;4.30;3.50;;;10.80;63.60;;;;;;4990835;28;20584;-91
2021/03/11 07:16:25;;;;;;;5.87;3.10;;;10.80;63.50;;;;;;4987126;28;20187;-91
2021/03/11 07:19:19;;;;;;;3.70;3.23;;;10.90;63.90;;;;;;4987096;28;20218;-91
2021/03/11 07:21:47;;;;;;;5.80;3.03;;;10.90;63.40;;;;;;4986803;28;20195;-90
2021/03/11 07:24:39;;;;;;;9.43;3.57;;;10.90;63.90;;;;;;4984726;28;20214;-92
2021/03/11 07:27:07;;;;;;;4.43;3.07;;;10.90;63.70;;;;;;4988826;28;20179;-93
2021/03/11 07:29:33;;;;;;;6.87;3.20;;;10.90;63.90;;;;;;4981678;28;20835;-92
2021/03/11 07:32:04;;;;;;;4.77;2.60;;;10.90;63.70;;;;;;4959073;28;20223;-91
2021/03/11 07:34:39;;;;;;;3.43;2.90;;;10.90;64.40;;;;;;4988122;28;20653;-91
2021/03/11 07:37:05;;;;;;;4.00;2.47;;;10.90;64.20;;;;;;4983047;28;20210;-91
2021/03/11 07:39:39;;;;;;;3.90;3.00;;;10.90;64.60;;;;;;5002265;28;20195;-91
2021/03/11 07:42:07;;;;;;;4.57;3.20;;;11.00;64.50;;;;;;4988603;28;20205;-89
2021/03/11 07:44:33;;;;;;;4.63;2.80;;;11.10;64.70;;;;;;4989593;28;20191;-92
2021/03/11 07:47:00;;;;;;;2.90;2.60;;;11.10;65.20;;;;;;4989918;28;20171;-89
2021/03/11 07:49:29;;;;;;;13.47;2.90;;;11.10;65.40;;;;;;4992239;28;20196;-91
2021/03/11 07:51:59;;;;;;;4.37;2.70;;;11.10;66.20;;;;;;4987065;28;20226;-90
2021/03/11 07:54:25;;;;;;;5.87;3.17;;;11.00;66.10;;;;;;4987635;28;20187;-89
2021/03/11 07:56:52;;;;;;;5.13;3.20;;;11.10;66.10;;;;;;4988976;28;20175;-92
2021/03/11 07:59:18;;;;;;;3.70;2.50;;;11.10;65.80;;;;;;4993846;28;20250;-90
2021/03/11 08:01:54;;;;;;;4.00;2.80;;;11.20;66.10;;;;;;4992033;28;20238;-91
2021/03/11 08:04:24;;;;;;;5.77;3.10;;;11.20;66.10;;;;;;4988108;28;20278;-90
2021/03/11 08:06:50;;;;;;;4.77;3.00;;;11.20;66.00;;;;;;4987776;28;20564;-90
2021/03/11 08:09:36;;;;;;;5.10;3.23;;;11.20;65.90;;;;;;4988718;28;20175;-92
2021/03/11 08:12:23;;;;;;;4.43;3.13;;;11.20;66.20;;;;;;4987335;28;20199;-91
2021/03/11 08:14:49;;;;;;;6.00;3.40;;;11.30;66.10;;;;;;4987599;28;20190;-91
2021/03/11 08:17:33;;;;;;;4.27;2.93;;;11.20;66.40;;;;;;4986173;28;20207;-90
2021/03/11 08:19:59;;;;;;;8.70;2.70;;;11.30;66.10;;;;;;4986038;28;20681;-90
2021/03/11 08:22:56;;;;;;;4.87;2.90;;;11.20;66.90;;;;;;4985675;28;20207;-90
2021/03/11 08:25:24;;;;;;;5.23;3.20;;;11.20;66.40;;;;;;4985257;28;20187;-92
2021/03/11 08:27:51;;;;;;;3.77;2.83;;;11.20;66.20;;;;;;4976113;28;20263;-90
2021/03/11 08:30:38;;;;;;;5.97;3.47;;;11.20;66.00;;;;;;4975593;28;20179;-90
2021/03/11 08:33:07;;;;;;;3.67;3.37;;;11.20;66.20;;;;;;4971304;28;20234;-90
2021/03/11 08:35:38;;;;;;;3.47;2.93;;;11.30;66.30;;;;;;4978077;28;20183;-90
2021/03/11 08:38:19;;;;;;;4.03;2.97;;;11.20;66.00;;;;;;4973034;28;20253;-89
2021/03/11 08:40:52;;;;;;;3.03;2.70;;;11.20;66.20;;;;;;4985614;28;20214;-91
2021/03/11 08:43:39;;;;;;;11.20;3.27;;;11.30;66.00;;;;;;5001602;28;20185;-90
2021/03/11 08:46:35;;;;;;;3.60;2.80;;;11.30;66.50;;;;;;4967902;28;20199;-91
2021/03/11 08:49:00;;;;;;;3.07;2.73;;;11.30;66.80;;;;;;4984785;28;20285;-91
2021/03/11 08:51:29;;;;;;;3.03;2.70;;;11.40;66.50;;;;;;4996376;28;20187;-88
2021/03/11 08:53:56;;;;;;;3.20;2.57;;;11.40;66.70;;;;;;4984966;28;20187;-88
2021/03/11 08:56:22;;;;;;;2.83;2.50;;;11.50;66.90;;;;;;4987141;28;20273;-90
2021/03/11 08:59:01;;;;;;;4.80;2.50;;;11.60;67.70;;;;;;4983297;28;20211;-90
2021/03/11 09:01:56;;;;;;;4.37;2.53;;;11.60;68.20;;;;;;4992361;28;20206;-91
2021/03/11 09:04:29;;;;;;;5.57;2.20;;;11.60;69.90;;;;;;4982040;28;20209;-89
2021/03/11 09:07:06;;;;;;;2.73;2.00;;;11.70;71.90;;;;;;4989241;28;20198;-90
2021/03/11 09:09:51;;;;;;;3.90;2.37;;;11.60;72.10;;;;;;4986578;28;20167;-90
2021/03/11 09:12:20;;;;;;;2.37;2.17;;;11.40;74.90;;;;;;4992460;28;20195;-90
2021/03/11 09:14:55;;;;;;;3.17;2.10;;;11.30;73.70;;;;;;4986271;28;20257;-90
2021/03/11 09:17:26;;;;;;;3.47;2.17;;;11.30;73.10;;;;;;4985070;28;20577;-89
2021/03/11 09:20:01;;;;;;;2.97;2.47;;;11.30;72.30;;;;;;5000678;28;20183;-91
2021/03/11 09:22:34;;;;;;;5.03;2.80;;;11.50;69.30;;;;;;4985996;28;20179;-90
2021/03/11 09:25:18;;;;;;;2.60;2.40;;;11.60;69.60;;;;;;4987844;28;20177;-90
2021/03/11 09:27:58;;;;;;;4.37;2.27;;;11.70;69.20;;;;;;4983923;28;20197;-90
2021/03/11 09:30:38;;;;;;;4.63;2.20;;;11.70;68.90;;;;;;4987230;28;20213;-90
2021/03/11 09:33:20;;;;;;;4.50;2.60;;;11.70;70.50;;;;;;4996625;28;20246;-90
2021/03/11 09:35:47;;;;;;;3.37;2.53;;;11.60;70.50;;;;;;4982455;28;20248;-91
2021/03/11 09:38:22;;;;;;;4.13;2.13;;;11.60;73.00;;;;;;5002860;28;20214;-90
2021/03/11 09:40:51;;;;;;;2.57;2.37;;;11.50;75.30;;;;;;4987815;28;20190;-90
2021/03/11 09:43:18;;;;;;;3.60;2.23;;;11.40;75.50;;;;;;4988390;28;20167;-88
2021/03/11 09:45:47;;;;;;;4.53;2.57;;;11.40;76.20;;;;;;4998104;28;20163;-89
2021/03/11 09:48:15;;;;;;;2.13;2.03;;;11.40;77.80;;;;;;4989435;28;20194;-91
2021/03/11 09:50:51;;;;;;;2.37;2.00;;;11.40;77.00;;;;;;4987453;28;20678;-90
2021/03/11 09:53:17;;;;;;;7.40;2.50;;;11.40;76.40;;;;;;5001792;28;20182;-90
2021/03/11 09:55:44;;;;;;;3.50;2.00;;;11.30;78.20;;;;;;4986756;28;20191;-91
2021/03/11 09:58:17;;;;;;;2.43;2.00;;;11.30;76.90;;;;;;4985549;28;20383;-91
2021/03/11 10:00:47;;;;;;;3.00;1.77;;;11.30;77.50;;;;;;4973692;28;20202;-92
2021/03/11 10:03:31;;;;;;;3.60;2.17;;;11.40;77.70;;;;;;4978233;28;20199;-90
2021/03/11 10:06:05;;;;;;;1.83;1.60;;;11.20;81.40;;;;;;4987132;28;20181;-92
2021/03/11 10:08:32;;;;;;;2.40;1.90;;;11.10;82.20;;;;;;4987424;28;20183;-91
2021/03/11 10:10:58;;;;;;;3.37;2.10;;;11.00;85.60;;;;;;4989834;28;20222;-92
2021/03/11 10:13:40;;;;;;;3.07;2.17;;;10.90;86.60;;;;;;4984742;28;20206;-92
2021/03/11 10:16:07;;;;;;;2.63;2.00;;;10.80;90.10;;;;;;4976315;28;20224;-93
2021/03/11 10:18:34;;;;;;;4.50;2.20;;;10.60;92.30;;;;;;4986184;28;20221;-93
2021/03/11 10:21:05;;;;;;;3.60;2.17;;;10.50;93.60;;;;;;4988635;28;20214;-92
2021/03/11 10:23:32;;;;;;;2.57;1.97;;;10.50;94.40;;;;;;4982374;28;20256;-93
2021/03/11 10:26:21;;;;;;;5.30;2.10;;;10.40;95.40;;;;;;4985134;28;20190;-92
2021/03/11 10:28:50;;;;;;;4.30;2.20;;;10.30;98.40;;;;;;4986890;28;20234;-92
2021/03/11 10:31:16;;;;;;;2.43;2.00;;;10.20;98.00;;;;;;4986258;28;20211;-92
2021/03/11 10:33:43;;;;;;;4.13;2.00;;;10.20;99.20;;;;;;4980164;28;20198;-92
2021/03/11 10:36:16;;;;;;;3.90;2.27;;;10.10;99.90;;;;;;4984612;28;20202;-92
2021/03/11 10:38:43;;;;;;;4.70;2.30;;;10.10;99.90;;;;;;4983873;28;20199;-92
2021/03/11 10:41:17;;;;;;;3.50;2.30;;;10.10;99.90;;;;;;4978389;28;20217;-92
2021/03/11 10:43:44;;;;;;;2.50;1.90;;;10.10;99.90;;;;;;4996147;28;20197;-92
2021/03/11 10:46:28;;;;;;;3.03;2.30;;;10.10;99.90;;;;;;4982425;28;20187;-93
2021/03/11 10:48:54;;;;;;;4.23;2.60;;;10.10;99.90;;;;;;4982360;28;20187;-91
2021/03/11 10:51:22;;;;;;;2.93;2.63;;;10.10;99.90;;;;;;4984869;28;20334;-92
2021/03/11 10:53:49;;;;;;;3.40;2.50;;;10.20;99.90;;;;;;4997494;28;20184;-91
2021/03/11 10:56:15;;;;;;;7.17;2.50;;;10.30;99.90;;;;;;4984994;28;20198;-92
2021/03/11 10:58:41;;;;;;;4.23;2.37;;;10.30;99.90;;;;;;4986242;28;20214;-93
2021/03/11 11:01:11;;;;;;;5.73;2.40;;;10.30;99.90;;;;;;4983701;28;20210;-93
2021/03/11 11:03:37;;;;;;;4.13;2.27;;;10.30;99.90;;;;;;4977385;28;20266;-91
2021/03/11 11:06:04;;;;;;;3.93;2.70;;;10.30;99.90;;;;;;4981572;28;20247;-92
2021/03/11 11:08:31;;;;;;;2.97;2.00;;;10.30;99.90;;;;;;4977603;28;20199;-90
2021/03/11 11:10:57;;;;;;;2.33;2.10;;;10.40;99.90;;;;;;4976348;28;20293;-90
2021/03/11 11:13:23;;;;;;;4.37;3.20;;;10.40;99.90;;;;;;4979758;28;20191;-91
2021/03/11 11:15:49;;;;;;;4.57;2.37;;;10.40;99.90;;;;;;4977849;28;20219;-90
2021/03/11 11:18:15;;;;;;;2.67;2.33;;;10.40;99.90;;;;;;4998448;28;20206;-93
2021/03/11 11:20:41;;;;;;;5.20;2.47;;;10.50;99.90;;;;;;4976036;28;20667;-91
2021/03/11 11:23:06;;;;;;;3.73;2.30;;;10.50;99.90;;;;;;4977388;28;20210;-91
2021/03/11 11:25:32;;;;;;;2.70;2.50;;;10.40;99.90;;;;;;4982654;28;20659;-93
2021/03/11 11:27:58;;;;;;;3.33;2.77;;;10.50;99.90;;;;;;4983313;28;20261;-91
2021/03/11 11:30:24;;;;;;;4.37;2.80;;;10.50;99.90;;;;;;4983229;28;20242;-90
2021/03/11 11:32:51;;;;;;;3.17;2.40;;;10.60;99.90;;;;;;4981836;28;20587;-92
2021/03/11 11:35:16;;;;;;;4.20;2.77;;;10.60;99.90;;;;;;4981734;28;20511;-91
2021/03/11 11:37:44;;;;;;;2.63;2.30;;;10.60;99.90;;;;;;4984027;28;20242;-91
2021/03/11 11:40:10;;;;;;;3.27;2.20;;;10.70;99.90;;;;;;4983212;28;20186;-91
2021/03/11 11:42:37;;;;;;;3.17;2.83;;;10.70;99.90;;;;;;4981631;28;20233;-91
2021/03/11 11:45:04;;;;;;;3.30;2.50;;;10.80;99.90;;;;;;4976061;28;20259;-92
2021/03/11 11:47:30;;;;;;;3.40;2.43;;;10.70;99.90;;;;;;4976635;28;20194;-91
2021/03/11 11:49:56;;;;;;;3.73;2.60;;;10.80;99.90;;;;;;4979301;28;20238;-93
2021/03/11 11:52:21;;;;;;;3.80;2.67;;;10.80;99.90;;;;;;4984125;28;20215;-93
2021/03/11 11:54:47;;;;;;;2.60;2.40;;;11.00;99.90;;;;;;4980982;28;20198;-92
2021/03/11 11:57:13;;;;;;;2.60;2.20;;;11.00;99.90;;;;;;4981001;28;20215;-93
2021/03/11 11:59:38;;;;;;;4.57;2.40;;;11.10;99.90;;;;;;4999313;28;20254;-92
2021/03/11 12:02:04;;;;;;;2.97;2.40;;;11.20;99.90;;;;;;4990209;28;20218;-93
2021/03/11 12:04:31;;;;;;;2.10;1.93;;;11.10;99.90;;;;;;4986132;28;20183;-94
2021/03/11 12:06:57;;;;;;;2.87;2.57;;;11.30;99.00;;;;;;4998950;28;20210;-93
2021/03/11 12:09:23;;;;;;;3.90;2.20;;;11.30;99.80;;;;;;4981516;28;20198;-93
2021/03/11 12:11:49;;;;;;;3.33;2.83;;;11.40;98.10;;;;;;4983038;28;20243;-93
2021/03/11 12:14:14;;;;;;;2.50;2.20;;;11.40;98.30;;;;;;4981920;28;20191;-92
2021/03/11 12:16:40;;;;;;;2.93;2.27;;;11.60;98.70;;;;;;5006465;28;20191;-93
2021/03/11 12:19:06;;;;;;;2.63;2.23;;;11.60;97.70;;;;;;4993085;28;20211;-92
2021/03/11 12:21:33;;;;;;;2.73;2.40;;;11.70;96.80;;;;;;4989660;28;20206;-92
2021/03/11 12:23:59;;;;;;;2.43;2.20;;;11.70;96.30;;;;;;4988174;28;20218;-93
2021/03/11 12:26:25;;;;;;;3.13;2.13;;;11.70;96.60;;;;;;4990394;28;20194;-93
2021/03/11 12:28:51;;;;;;;2.57;2.37;;;11.70;95.40;;;;;;4990239;28;20291;-92
2021/03/11 12:31:17;;;;;;;2.43;2.20;;;11.80;96.10;;;;;;5001485;28;20207;-93
2021/03/11 12:33:43;;;;;;;2.40;2.20;;;11.70;95.40;;;;;;4984660;28;20198;-93
2021/03/11 12:36:10;;;;;;;2.47;2.27;;;11.60;96.10;;;;;;4979985;28;20267;-92
2021/03/11 12:38:37;;;;;;;2.27;2.07;;;11.60;97.50;;;;;;4984133;28;20211;-92
2021/03/11 12:41:03;;;;;;;2.00;1.90;;;11.60;96.90;;;;;;4982545;28;20581;-93
2021/03/11 12:43:29;;;;;;;2.20;2.10;;;11.60;96.00;;;;;;4980409;28;20211;-91
2021/03/11 12:45:55;;;;;;;1.80;1.70;;;11.70;97.00;;;;;;4975589;28;20233;-93
2021/03/11 12:48:21;;;;;;;4.00;2.40;;;11.60;97.30;;;;;;4981892;28;20191;-92
2021/03/11 12:50:48;;;;;;;1.90;1.80;;;11.60;96.50;;;;;;4979261;28;20234;-91
2021/03/11 12:53:15;;;;;;;2.47;2.13;;;11.50;98.70;;;;;;4977630;28;20221;-91
2021/03/11 12:55:41;;;;;;;2.73;2.20;;;11.50;99.00;;;;;;4973740;28;20558;-92